createdAt,value
2019-04-04T00:01:56.674Z,1.87
2019-04-04T00:04:25.837Z,4.40
2019-04-04T00:06:57.735Z,5.40
2019-04-04T00:09:25.683Z,2.90
2019-04-04T00:11:54.846Z,3.80
2019-04-04T00:14:23.689Z,3.70
2019-04-04T00:16:52.525Z,3.47
2019-04-04T00:19:21.431Z,2.90
2019-04-04T00:21:50.269Z,2.10
2019-04-04T00:24:19.171Z,3.00
2019-04-04T00:26:48.087Z,2.73
2019-04-04T00:29:17.795Z,2.50
2019-04-04T00:31:49.507Z,2.53
2019-04-04T00:34:18.040Z,3.20
2019-04-04T00:36:46.974Z,2.50
2019-04-04T00:39:15.797Z,3.00
2019-04-04T00:41:45.427Z,2.53
2019-04-04T00:44:14.446Z,2.40
2019-04-04T00:46:43.297Z,2.53
2019-04-04T00:49:12.151Z,2.10
2019-04-04T00:51:41.129Z,1.50
2019-04-04T00:54:10.041Z,2.60
2019-04-04T00:56:38.893Z,1.50
2019-04-04T00:59:07.790Z,1.60
2019-04-04T01:01:37.069Z,1.40
2019-04-04T01:04:06.272Z,1.40
2019-04-04T01:06:35.471Z,1.70
2019-04-04T01:09:11.309Z,1.57
2019-04-04T01:11:36.947Z,2.23
2019-04-04T01:14:05.854Z,2.50
2019-04-04T01:16:34.712Z,2.23
2019-04-04T01:19:03.607Z,1.80
2019-04-04T01:21:32.607Z,1.80
2019-04-04T01:24:01.698Z,2.07
2019-04-04T01:26:30.542Z,1.97
2019-04-04T01:28:59.428Z,3.40
2019-04-04T01:31:28.353Z,2.60
2019-04-04T01:33:57.257Z,2.93
2019-04-04T01:36:26.179Z,2.60
2019-04-04T01:38:55.351Z,2.60
2019-04-04T01:41:24.551Z,3.50
2019-04-04T01:44:04.608Z,3.30
2019-04-04T01:46:24.367Z,2.50
2019-04-04T01:48:53.478Z,2.57
2019-04-04T01:51:23.213Z,3.80
2019-04-04T01:53:52.937Z,2.43
2019-04-04T01:56:21.782Z,2.13
2019-04-04T01:58:50.689Z,5.17
2019-04-04T02:01:19.878Z,3.00
2019-04-04T02:03:48.721Z,4.03
2019-04-04T02:06:17.865Z,2.87
2019-04-04T02:08:46.693Z,2.60
2019-04-04T02:11:15.683Z,1.80
2019-04-04T02:13:44.581Z,1.90
2019-04-04T02:16:14.923Z,1.63
2019-04-04T02:18:44.045Z,1.50
2019-04-04T02:21:13.020Z,2.00
2019-04-04T02:23:41.925Z,2.17
2019-04-04T02:26:10.826Z,2.63
2019-04-04T02:28:39.988Z,2.03
2019-04-04T02:31:10.362Z,2.23
2019-04-04T02:33:39.207Z,1.73
2019-04-04T02:36:08.102Z,2.17
2019-04-04T02:38:37.027Z,1.70
2019-04-04T02:41:06.015Z,1.80
2019-04-04T02:43:35.009Z,2.10
2019-04-04T02:46:03.983Z,1.80
2019-04-04T02:48:33.251Z,1.80
2019-04-04T02:51:02.191Z,1.87
2019-04-04T02:53:31.514Z,2.27
2019-04-04T02:56:03.456Z,1.83
2019-04-04T02:58:31.174Z,2.53
2019-04-04T03:01:00.571Z,1.70
2019-04-04T03:03:29.589Z,1.80
2019-04-04T03:05:58.590Z,1.77
2019-04-04T03:08:27.651Z,1.87
2019-04-04T03:10:56.623Z,3.00
2019-04-04T03:13:25.609Z,3.60
2019-04-04T03:15:54.439Z,2.60
2019-04-04T03:18:23.291Z,2.33
2019-04-04T03:20:52.131Z,2.97
2019-04-04T03:23:20.993Z,2.90
2019-04-04T03:25:50.021Z,3.30
2019-04-04T03:28:18.947Z,3.00
2019-04-04T03:31:00.694Z,4.40
2019-04-04T03:33:19.090Z,3.33
2019-04-04T03:35:48.001Z,3.83
2019-04-04T03:38:16.855Z,4.60
2019-04-04T03:40:45.858Z,4.57
2019-04-04T03:43:16.123Z,3.70
2019-04-04T03:45:45.254Z,3.97
2019-04-04T03:48:17.030Z,4.97
2019-04-04T03:50:44.738Z,3.47
2019-04-04T03:53:16.295Z,3.53
2019-04-04T03:55:44.441Z,3.77
2019-04-04T03:58:13.634Z,3.07
2019-04-04T04:00:42.534Z,2.60
2019-04-04T04:03:11.732Z,2.77
2019-04-04T04:05:40.957Z,4.10
2019-04-04T04:08:10.074Z,3.80
2019-04-04T04:10:38.974Z,2.80
2019-04-04T04:13:09.232Z,2.17
2019-04-04T04:15:38.239Z,4.30
2019-04-04T04:18:07.161Z,1.83
2019-04-04T04:20:37.652Z,1.80
2019-04-04T04:23:06.861Z,3.73
2019-04-04T04:25:36.884Z,2.00
2019-04-04T04:28:05.905Z,1.93
2019-04-04T04:30:39.381Z,3.17
2019-04-04T04:33:05.456Z,4.23
2019-04-04T04:35:34.579Z,3.60
2019-04-04T04:38:03.446Z,2.17
2019-04-04T04:40:32.274Z,3.93
2019-04-04T04:43:01.610Z,2.00
2019-04-04T04:45:30.570Z,1.70
2019-04-04T04:47:59.801Z,3.83
2019-04-04T04:50:28.956Z,2.17
2019-04-04T04:52:57.879Z,3.03
2019-04-04T04:55:28.055Z,2.23
2019-04-04T04:57:57.490Z,2.57
2019-04-04T05:00:27.953Z,2.90
2019-04-04T05:02:57.814Z,2.60
2019-04-04T05:05:27.114Z,2.10
2019-04-04T05:07:55.954Z,2.73
2019-04-04T05:10:24.969Z,2.23
2019-04-04T05:12:54.220Z,2.60
2019-04-04T05:15:23.512Z,3.03
2019-04-04T05:17:52.794Z,3.00
2019-04-04T05:20:23.134Z,2.67
2019-04-04T05:22:52.622Z,2.50
2019-04-04T05:25:21.553Z,6.00
2019-04-04T05:27:50.433Z,3.67
2019-04-04T05:30:20.491Z,6.33
2019-04-04T05:32:50.033Z,6.53
2019-04-04T05:35:20.286Z,6.73
2019-04-04T05:37:49.208Z,4.90
2019-04-04T05:40:18.572Z,5.10
2019-04-04T05:42:47.493Z,3.90
2019-04-04T05:45:16.516Z,5.77
2019-04-04T05:47:45.440Z,4.50
2019-04-04T05:50:16.418Z,3.60
2019-04-04T05:52:45.375Z,5.07
2019-04-04T05:55:14.421Z,4.80
2019-04-04T05:57:43.757Z,6.37
2019-04-04T06:00:14.870Z,5.87
2019-04-04T06:02:44.530Z,4.30
2019-04-04T06:05:13.813Z,5.50
2019-04-04T06:07:42.824Z,6.63
2019-04-04T06:10:12.429Z,6.30
2019-04-04T06:12:41.337Z,7.63
2019-04-04T06:15:10.549Z,7.43
2019-04-04T06:17:39.983Z,6.67
2019-04-04T06:20:09.677Z,5.40
2019-04-04T06:22:38.916Z,6.50
2019-04-04T06:25:08.257Z,5.60
2019-04-04T06:27:39.900Z,7.03
2019-04-04T06:30:08.258Z,6.20
2019-04-04T06:32:38.830Z,6.10
2019-04-04T06:35:08.234Z,9.47
2019-04-04T06:37:38.722Z,12.27
2019-04-04T06:40:08.872Z,8.80
2019-04-04T06:42:38.083Z,7.00
2019-04-04T06:45:07.158Z,5.93
2019-04-04T06:47:36.847Z,6.53
2019-04-04T06:50:08.209Z,5.37
2019-04-04T06:52:37.302Z,4.50
2019-04-04T06:55:06.693Z,5.10
2019-04-04T06:57:36.567Z,7.00
2019-04-04T07:00:08.482Z,9.20
2019-04-04T07:02:37.369Z,8.67
2019-04-04T07:05:10.398Z,8.87
2019-04-04T07:07:38.382Z,9.50
2019-04-04T07:10:07.374Z,7.60
2019-04-04T07:12:38.035Z,7.73
2019-04-04T07:15:11.237Z,7.07
2019-04-04T07:17:40.369Z,8.13
2019-04-04T07:20:10.236Z,6.37
2019-04-04T07:22:39.174Z,14.30
2019-04-04T07:25:08.669Z,7.80
2019-04-04T07:27:37.680Z,9.03
2019-04-04T07:30:07.773Z,6.67
2019-04-04T07:32:36.673Z,7.70
2019-04-04T07:35:05.979Z,7.20
2019-04-04T07:37:34.911Z,5.93
2019-04-04T07:40:04.531Z,7.40
2019-04-04T07:42:34.253Z,9.03
2019-04-04T07:45:03.552Z,6.60
2019-04-04T07:47:32.548Z,8.70
2019-04-04T07:50:01.839Z,6.63
2019-04-04T07:52:32.770Z,6.07
2019-04-04T07:55:01.356Z,7.23
2019-04-04T07:57:30.578Z,6.70
2019-04-04T07:59:59.964Z,4.60
2019-04-04T08:02:29.322Z,6.60
2019-04-04T08:04:58.210Z,4.60
2019-04-04T08:07:27.364Z,3.77
2019-04-04T08:09:56.554Z,4.50
2019-04-04T08:12:25.563Z,3.10
2019-04-04T08:14:54.477Z,2.63
2019-04-04T08:17:23.667Z,4.00
2019-04-04T08:19:59.568Z,4.90
2019-04-04T08:22:23.335Z,3.23
2019-04-04T08:24:52.251Z,3.43
2019-04-04T08:27:21.123Z,3.43
2019-04-04T08:29:50.720Z,2.90
2019-04-04T08:32:19.570Z,3.20
2019-04-04T08:34:48.499Z,3.07
2019-04-04T08:37:17.790Z,2.80
2019-04-04T08:39:46.637Z,3.17
2019-04-04T08:42:15.924Z,3.50
2019-04-04T08:44:44.843Z,3.40
2019-04-04T08:47:14.016Z,4.27
2019-04-04T08:49:43.175Z,3.03
2019-04-04T08:52:16.766Z,3.10
2019-04-04T08:54:43.146Z,2.43
2019-04-04T08:57:12.347Z,3.13
2019-04-04T08:59:41.181Z,3.43
2019-04-04T09:02:10.455Z,2.97
2019-04-04T09:04:39.318Z,3.30
2019-04-04T09:07:08.246Z,3.47
2019-04-04T09:09:37.201Z,3.90
2019-04-04T09:12:06.515Z,4.00
2019-04-04T09:14:35.710Z,4.20
2019-04-04T09:17:04.720Z,4.07
2019-04-04T09:19:33.898Z,3.30
2019-04-04T09:22:02.822Z,3.67
2019-04-04T09:24:31.741Z,3.50
2019-04-04T09:27:00.662Z,4.53
2019-04-04T09:29:29.874Z,4.77
2019-04-04T09:31:58.746Z,5.03
2019-04-04T09:34:27.938Z,5.40
2019-04-04T09:36:56.804Z,6.73
2019-04-04T09:39:25.661Z,5.57
2019-04-04T09:41:54.587Z,6.53
2019-04-04T09:44:23.738Z,7.30
2019-04-04T09:47:04.858Z,6.10
2019-04-04T09:49:24.193Z,8.10
2019-04-04T09:51:53.090Z,9.40
2019-04-04T09:54:21.954Z,7.50
2019-04-04T09:56:51.267Z,7.17
2019-04-04T09:59:21.014Z,5.50
2019-04-04T10:01:50.323Z,5.47
2019-04-04T10:04:19.569Z,6.47
2019-04-04T10:06:48.782Z,6.30
2019-04-04T10:09:17.965Z,9.23
2019-04-04T10:11:47.070Z,8.30
2019-04-04T10:14:15.968Z,10.10
2019-04-04T10:16:45.269Z,8.70
2019-04-04T10:19:14.276Z,5.57
2019-04-04T10:21:43.456Z,6.67
2019-04-04T10:24:12.317Z,6.73
2019-04-04T10:26:41.167Z,6.83
2019-04-04T10:29:10.790Z,6.57
2019-04-04T10:31:39.930Z,6.17
2019-04-04T10:34:09.016Z,4.30
2019-04-04T10:36:38.233Z,4.53
2019-04-04T10:39:11.773Z,3.70
2019-04-04T10:41:41.127Z,4.67
2019-04-04T10:44:10.435Z,3.80
2019-04-04T10:46:39.938Z,3.80
2019-04-04T10:49:08.801Z,3.57
2019-04-04T10:51:38.030Z,4.20
2019-04-04T10:54:07.051Z,3.60
2019-04-04T10:56:36.378Z,4.73
2019-04-04T10:59:05.407Z,3.90
2019-04-04T11:01:34.721Z,3.63
2019-04-04T11:04:03.662Z,3.97
2019-04-04T11:06:32.807Z,4.63
2019-04-04T11:09:01.989Z,4.37
2019-04-04T11:11:31.202Z,5.10
2019-04-04T11:14:00.199Z,7.20
2019-04-04T11:16:30.583Z,6.70
2019-04-04T11:18:59.733Z,4.83
2019-04-04T11:21:28.930Z,6.40
2019-04-04T11:23:58.294Z,4.17
2019-04-04T11:26:27.630Z,3.83
2019-04-04T11:28:56.805Z,5.90
2019-04-04T11:31:26.119Z,2.90
2019-04-04T11:33:54.981Z,2.87
2019-04-04T11:36:24.134Z,2.93
2019-04-04T11:38:53.074Z,2.90
2019-04-04T11:41:21.906Z,1.83
2019-04-04T11:43:51.195Z,2.07
2019-04-04T11:46:20.145Z,2.93
2019-04-04T11:48:48.993Z,3.13
2019-04-04T11:51:17.930Z,3.33
2019-04-04T11:53:46.774Z,2.77
2019-04-04T11:56:15.614Z,3.03
2019-04-04T11:58:44.555Z,3.80
2019-04-04T12:01:13.698Z,3.57
2019-04-04T12:03:42.550Z,4.10
2019-04-04T12:06:11.753Z,4.50
2019-04-04T12:08:40.918Z,3.93
2019-04-04T12:11:09.857Z,2.83
2019-04-04T12:13:39.017Z,3.57
2019-04-04T12:16:08.314Z,4.23
2019-04-04T12:18:37.616Z,3.07
2019-04-04T12:21:06.615Z,3.83
2019-04-04T12:23:35.477Z,5.00
2019-04-04T12:26:04.901Z,5.60
2019-04-04T12:28:34.094Z,3.00
2019-04-04T12:31:03.606Z,3.33
2019-04-04T12:33:32.908Z,3.27
2019-04-04T12:36:02.203Z,5.30
2019-04-04T12:38:31.144Z,5.10
2019-04-04T12:41:00.062Z,3.23
2019-04-04T12:43:28.987Z,3.40
2019-04-04T12:45:58.174Z,3.30
2019-04-04T12:48:27.230Z,4.37
2019-04-04T12:50:56.200Z,4.10
2019-04-04T12:53:25.122Z,4.57
2019-04-04T12:55:54.464Z,4.60
2019-04-04T12:58:23.448Z,3.63
2019-04-04T13:00:52.753Z,2.87
2019-04-04T13:03:22.586Z,3.90
2019-04-04T13:05:51.823Z,3.00
2019-04-04T13:08:21.062Z,3.90
2019-04-04T13:10:50.137Z,3.77
2019-04-04T13:13:19.006Z,4.17
2019-04-04T13:15:47.866Z,3.43
2019-04-04T13:18:17.859Z,3.53
2019-04-04T13:20:46.798Z,13.90
2019-04-04T13:23:15.950Z,4.90
2019-04-04T13:25:45.146Z,4.80
2019-04-04T13:28:14.060Z,5.70
2019-04-04T13:30:43.242Z,4.17
2019-04-04T13:33:12.457Z,4.33
2019-04-04T13:35:41.635Z,3.93
2019-04-04T13:38:10.831Z,3.40
2019-04-04T13:40:45.722Z,4.40
2019-04-04T13:43:10.931Z,3.80
2019-04-04T13:45:40.078Z,3.70
2019-04-04T13:48:10.690Z,3.80
2019-04-04T13:50:40.206Z,3.30
2019-04-04T13:53:09.176Z,4.77
2019-04-04T13:55:39.404Z,3.63
2019-04-04T13:58:09.159Z,3.50
2019-04-04T14:00:57.099Z,3.50
2019-04-04T14:03:26.023Z,4.50
2019-04-04T14:05:55.269Z,3.50
2019-04-04T14:08:24.558Z,4.30
2019-04-04T14:10:58.324Z,6.77
2019-04-04T14:13:26.151Z,5.33
2019-04-04T14:15:55.571Z,3.60
2019-04-04T14:18:38.061Z,3.33
2019-04-04T14:21:03.470Z,3.40
2019-04-04T14:23:33.576Z,4.20
2019-04-04T14:26:03.719Z,3.83
2019-04-04T14:28:32.806Z,5.13
2019-04-04T14:31:02.088Z,4.47
2019-04-04T14:33:31.542Z,3.97
2019-04-04T14:36:00.560Z,4.63
2019-04-04T14:38:29.415Z,4.00
2019-04-04T14:41:10.255Z,4.10
2019-04-04T14:43:29.982Z,4.80
2019-04-04T14:45:59.751Z,4.30
2019-04-04T14:48:28.793Z,3.67
2019-04-04T14:50:57.806Z,4.30
2019-04-04T14:53:26.865Z,4.37
2019-04-04T14:55:56.331Z,5.77
2019-04-04T14:58:25.499Z,12.00
2019-04-04T15:00:54.961Z,5.50
2019-04-04T15:03:24.371Z,8.90
2019-04-04T15:05:53.350Z,7.37
2019-04-04T15:08:22.635Z,6.10
2019-04-04T15:10:51.698Z,4.33
2019-04-04T15:13:21.123Z,4.70
2019-04-04T15:16:10.922Z,3.80
2019-04-04T15:18:40.248Z,3.40
2019-04-04T15:21:09.342Z,3.90
2019-04-04T15:23:38.351Z,3.33
2019-04-04T15:26:09.756Z,3.40
2019-04-04T15:28:38.963Z,3.17
2019-04-04T15:31:08.441Z,3.60
2019-04-04T15:33:37.426Z,3.60
2019-04-04T15:36:07.659Z,3.50
2019-04-04T15:38:36.523Z,4.27
2019-04-04T15:41:05.854Z,4.77
2019-04-04T15:43:35.034Z,3.60
2019-04-04T15:46:04.010Z,4.33
2019-04-04T15:48:33.022Z,4.63
2019-04-04T15:51:02.242Z,2.63
2019-04-04T15:53:33.070Z,3.00
2019-04-04T15:56:02.596Z,2.27
2019-04-04T15:58:31.886Z,2.67
2019-04-04T16:01:00.947Z,3.10
2019-04-04T16:03:30.582Z,3.03
2019-04-04T16:05:59.787Z,3.80
2019-04-04T16:08:29.012Z,4.57
2019-04-04T16:10:59.763Z,3.40
2019-04-04T16:13:28.797Z,2.83
2019-04-04T16:15:58.017Z,3.10
2019-04-04T16:18:26.947Z,3.93
2019-04-04T16:20:56.204Z,3.90
2019-04-04T16:23:25.151Z,4.60
2019-04-04T16:25:54.394Z,3.93
2019-04-04T16:28:24.002Z,4.50
2019-04-04T16:30:52.939Z,5.73
2019-04-04T16:33:21.929Z,4.10
2019-04-04T16:35:50.764Z,4.30
2019-04-04T16:38:22.723Z,3.40
2019-04-04T16:40:51.018Z,4.13
2019-04-04T16:43:19.953Z,3.00
2019-04-04T16:45:48.802Z,4.43
2019-04-04T16:48:17.687Z,4.50
2019-04-04T16:50:46.782Z,4.40
2019-04-04T16:53:15.631Z,7.43
2019-04-04T16:55:44.794Z,6.90
2019-04-04T16:58:13.726Z,3.93
2019-04-04T17:00:43.588Z,4.07
2019-04-04T17:03:12.495Z,3.83
2019-04-04T17:05:41.773Z,3.30
2019-04-04T17:08:10.694Z,4.13
2019-04-04T17:10:39.716Z,4.07
2019-04-04T17:13:08.973Z,3.70
2019-04-04T17:15:38.259Z,3.90
2019-04-04T17:18:07.254Z,4.07
2019-04-04T17:20:36.175Z,3.53
2019-04-04T17:23:05.279Z,3.97
2019-04-04T17:25:34.740Z,3.10
2019-04-04T17:28:03.724Z,3.13
2019-04-04T17:30:33.657Z,3.77
2019-04-04T17:33:03.382Z,3.50
2019-04-04T17:35:32.636Z,3.80
2019-04-04T17:38:01.647Z,3.30
2019-04-04T17:40:31.229Z,3.70
2019-04-04T17:43:00.471Z,4.10
2019-04-04T17:45:29.323Z,3.90
2019-04-04T17:47:59.127Z,3.73
2019-04-04T17:50:28.061Z,3.57
2019-04-04T17:52:57.358Z,5.93
2019-04-04T17:55:26.662Z,4.17
2019-04-04T17:57:55.809Z,3.80
2019-04-04T18:00:26.695Z,3.80
2019-04-04T18:02:55.895Z,4.13
2019-04-04T18:05:24.903Z,3.97
2019-04-04T18:07:54.083Z,3.67
2019-04-04T18:10:23.609Z,5.60
2019-04-04T18:12:52.567Z,6.63
2019-04-04T18:15:21.882Z,3.53
2019-04-04T18:17:50.730Z,3.70
2019-04-04T18:20:20.274Z,3.93
2019-04-04T18:22:49.276Z,6.23
2019-04-04T18:25:18.601Z,6.60
2019-04-04T18:27:47.511Z,6.70
2019-04-04T18:30:17.341Z,6.17
2019-04-04T18:32:46.579Z,7.47
2019-04-04T18:35:16.123Z,5.07
2019-04-04T18:37:45.086Z,4.80
2019-04-04T18:40:14.474Z,7.97
2019-04-04T18:42:53.318Z,7.57
2019-04-04T18:45:14.043Z,6.43
2019-04-04T18:47:42.896Z,4.93
2019-04-04T18:50:12.401Z,8.23
2019-04-04T18:52:41.309Z,7.10
2019-04-04T18:55:19.637Z,8.00
2019-04-04T18:57:41.541Z,11.43
2019-04-04T19:00:10.955Z,8.97
2019-04-04T19:02:40.339Z,9.27
2019-04-04T19:05:09.550Z,6.50
2019-04-04T19:07:39.901Z,5.83
2019-04-04T19:10:09.707Z,6.67
2019-04-04T19:12:38.632Z,6.07
2019-04-04T19:15:08.308Z,6.87
2019-04-04T19:17:37.254Z,5.80
2019-04-04T19:20:09.732Z,5.83
2019-04-04T19:22:38.631Z,4.80
2019-04-04T19:25:08.243Z,8.20
2019-04-04T19:27:37.225Z,7.90
2019-04-04T19:30:08.161Z,15.43
2019-04-04T19:32:37.303Z,11.67
2019-04-04T19:35:06.969Z,12.20
2019-04-04T19:37:35.959Z,10.17
2019-04-04T19:40:06.202Z,7.67
2019-04-04T19:42:35.210Z,8.40
2019-04-04T19:45:05.011Z,7.80
2019-04-04T19:47:33.917Z,7.97
2019-04-04T19:50:02.918Z,9.40
2019-04-04T19:52:32.082Z,8.83
2019-04-04T19:55:01.282Z,7.30
2019-04-04T19:57:30.485Z,7.07
2019-04-04T19:59:59.329Z,6.17
2019-04-04T20:02:28.317Z,6.47
2019-04-04T20:04:57.319Z,5.10
2019-04-04T20:07:26.563Z,5.90
2019-04-04T20:09:55.482Z,5.00
2019-04-04T20:12:25.062Z,6.53
2019-04-04T20:14:54.250Z,8.77
2019-04-04T20:17:23.183Z,6.73
2019-04-04T20:19:52.452Z,4.67
2019-04-04T20:22:21.850Z,13.10
2019-04-04T20:24:50.753Z,7.63
2019-04-04T20:27:19.935Z,6.63
2019-04-04T20:29:49.141Z,6.00
2019-04-04T20:32:17.993Z,4.80
2019-04-04T20:34:46.971Z,6.60
2019-04-04T20:37:15.826Z,4.97
2019-04-04T20:39:45.005Z,5.30
2019-04-04T20:42:13.862Z,6.20
2019-04-04T20:44:43.134Z,4.77
2019-04-04T20:47:12.447Z,5.83
2019-04-04T20:49:41.282Z,6.03
2019-04-04T20:52:10.331Z,2.93
2019-04-04T20:54:39.254Z,3.07
2019-04-04T20:57:08.106Z,12.10
2019-04-04T20:59:37.259Z,4.37
2019-04-04T21:02:07.020Z,3.60
2019-04-04T21:04:36.166Z,3.10
2019-04-04T21:07:05.491Z,4.53
2019-04-04T21:09:34.482Z,3.57
2019-04-04T21:12:03.463Z,3.90
2019-04-04T21:14:32.562Z,4.37
2019-04-04T21:17:01.553Z,3.40
2019-04-04T21:19:30.744Z,3.40
2019-04-04T21:21:59.963Z,5.20
2019-04-04T21:24:28.874Z,4.80
2019-04-04T21:26:57.710Z,4.47
2019-04-04T21:29:26.615Z,4.37
2019-04-04T21:31:55.830Z,4.03
2019-04-04T21:34:25.032Z,4.10
2019-04-04T21:36:54.286Z,4.70
2019-04-04T21:39:23.188Z,3.00
2019-04-04T21:41:52.030Z,2.70
2019-04-04T21:44:20.940Z,3.00
2019-04-04T21:46:49.801Z,3.17
2019-04-04T21:49:18.979Z,2.80
2019-04-04T21:51:47.832Z,2.53
2019-04-04T21:54:16.674Z,2.83
2019-04-04T21:56:45.521Z,2.00
2019-04-04T21:59:14.668Z,2.20
2019-04-04T22:01:43.726Z,2.60
2019-04-04T22:04:12.658Z,2.03
2019-04-04T22:06:41.582Z,2.20
2019-04-04T22:09:14.973Z,2.30
2019-04-04T22:11:43.905Z,1.97
2019-04-04T22:14:21.573Z,2.00
2019-04-04T22:16:43.498Z,3.80
2019-04-04T22:19:12.742Z,3.87
2019-04-04T22:21:42.447Z,2.30
2019-04-04T22:24:11.359Z,4.87
2019-04-04T22:26:40.635Z,4.30
2019-04-04T22:29:09.875Z,3.57
2019-04-04T22:31:38.721Z,3.00
2019-04-04T22:34:07.554Z,3.40
2019-04-04T22:36:36.473Z,3.33
2019-04-04T22:39:07.413Z,3.00
2019-04-04T22:41:36.417Z,2.47
2019-04-04T22:44:05.739Z,3.10
2019-04-04T22:46:34.946Z,2.03
2019-04-04T22:49:03.937Z,2.00
2019-04-04T22:51:32.839Z,1.97
2019-04-04T22:54:01.678Z,2.97
2019-04-04T22:56:30.508Z,6.10
2019-04-04T22:58:59.417Z,3.83
2019-04-04T23:01:29.231Z,3.40
2019-04-04T23:03:58.310Z,1.90
2019-04-04T23:06:27.229Z,3.30
2019-04-04T23:08:56.081Z,2.73
2019-04-04T23:11:25.019Z,2.50
2019-04-04T23:13:53.930Z,3.23
2019-04-04T23:16:22.833Z,3.07
2019-04-04T23:18:51.751Z,1.80
2019-04-04T23:21:20.732Z,2.67
2019-04-04T23:23:49.574Z,2.13
2019-04-04T23:26:19.178Z,1.93
2019-04-04T23:28:48.442Z,1.83
2019-04-04T23:31:18.390Z,2.40
2019-04-04T23:33:47.558Z,2.40
2019-04-04T23:36:16.394Z,2.43
2019-04-04T23:38:45.233Z,2.77
2019-04-04T23:41:14.138Z,4.57
2019-04-04T23:43:42.983Z,3.13
2019-04-04T23:46:11.891Z,2.67
2019-04-04T23:48:40.734Z,2.50
2019-04-04T23:51:09.570Z,2.37
2019-04-04T23:53:38.416Z,3.30
2019-04-04T23:56:07.394Z,3.47
2019-04-04T23:58:36.237Z,1.90
